createdAt,value
2022-11-04T00:02:08.301Z,2.63
2022-11-04T00:04:35.592Z,2.75
2022-11-04T00:07:22.904Z,2.92
2022-11-04T00:09:50.230Z,2.70
2022-11-04T00:12:26.715Z,3.85
2022-11-04T00:14:54.361Z,2.30
2022-11-04T00:17:24.612Z,2.72
2022-11-04T00:20:12.214Z,2.85
2022-11-04T00:23:00.567Z,3.90
2022-11-04T00:25:46.495Z,2.47
2022-11-04T00:28:38.474Z,3.47
2022-11-04T00:31:26.465Z,3.08
2022-11-04T00:33:55.897Z,2.60
2022-11-04T00:36:24.999Z,3.80
2022-11-04T00:38:52.789Z,2.72
2022-11-04T00:41:26.582Z,3.53
2022-11-04T00:44:00.130Z,2.80
2022-11-04T00:46:28.949Z,2.67
2022-11-04T00:48:56.549Z,3.55
2022-11-04T00:51:24.344Z,3.03
2022-11-04T00:53:52.011Z,3.65
2022-11-04T00:56:19.381Z,3.78
2022-11-04T00:58:46.693Z,4.45
2022-11-04T01:01:18.792Z,3.65
2022-11-04T01:03:52.111Z,2.63
2022-11-04T01:06:21.774Z,3.80
2022-11-04T01:08:49.386Z,3.45
2022-11-04T01:11:17.076Z,3.80
2022-11-04T01:13:44.403Z,4.68
2022-11-04T01:16:13.253Z,3.85
2022-11-04T01:18:41.300Z,3.88
2022-11-04T01:21:11.247Z,3.67
2022-11-04T01:23:39.399Z,3.72
2022-11-04T01:26:12.772Z,3.90
2022-11-04T01:28:40.215Z,4.55
2022-11-04T01:31:12.727Z,4.03
2022-11-04T01:33:40.141Z,4.50
2022-11-04T01:36:08.720Z,3.95
2022-11-04T01:38:36.205Z,4.72
2022-11-04T01:41:04.199Z,4.55
2022-11-04T01:43:54.423Z,5.38
2022-11-04T01:46:38.242Z,4.95
2022-11-04T01:49:40.692Z,6.18
2022-11-04T01:52:15.672Z,5.93
2022-11-04T01:54:46.412Z,5.38
2022-11-04T01:57:19.053Z,5.80
2022-11-04T01:59:46.783Z,5.95
2022-11-04T02:02:14.291Z,5.68
2022-11-04T02:04:43.957Z,5.53
2022-11-04T02:07:12.594Z,6.35
2022-11-04T02:09:41.122Z,6.32
2022-11-04T02:12:27.278Z,5.22
2022-11-04T02:14:55.506Z,5.80
2022-11-04T02:17:37.764Z,6.63
2022-11-04T02:23:22.991Z,5.65
2022-11-04T02:26:27.515Z,5.28
2022-11-04T02:29:47.335Z,5.03
2022-11-04T02:32:31.086Z,5.78
2022-11-04T02:35:12.485Z,5.72
2022-11-04T02:38:08.368Z,5.53
2022-11-04T02:41:20.247Z,5.57
2022-11-04T02:44:15.069Z,6.03
2022-11-04T02:47:04.729Z,6.20
2022-11-04T02:50:07.840Z,5.55
2022-11-04T02:52:50.359Z,5.28
2022-11-04T02:55:33.369Z,6.18
2022-11-04T02:58:04.728Z,7.22
2022-11-04T03:00:33.266Z,6.22
2022-11-04T03:03:12.284Z,6.05
2022-11-04T03:05:42.175Z,6.35
2022-11-04T03:08:17.352Z,5.43
2022-11-04T03:10:51.066Z,5.72
2022-11-04T03:13:39.872Z,5.18
2022-11-04T03:16:12.940Z,4.75
2022-11-04T03:19:14.114Z,4.80
2022-11-04T03:21:51.375Z,5.53
2022-11-04T03:24:18.660Z,5.18
2022-11-04T03:26:57.626Z,5.30
2022-11-04T03:29:49.931Z,5.45
2022-11-04T03:32:43.598Z,4.70
2022-11-04T03:35:12.490Z,4.82
2022-11-04T03:37:39.905Z,6.15
2022-11-04T03:40:08.382Z,5.38
2022-11-04T03:42:43.378Z,5.25
2022-11-04T03:45:11.388Z,5.13
2022-11-04T03:47:38.963Z,4.65
2022-11-04T03:50:31.127Z,5.30
2022-11-04T03:52:59.387Z,5.18
2022-11-04T03:56:19.456Z,5.47
2022-11-04T03:59:06.784Z,6.13
2022-11-04T04:01:51.639Z,5.45
2022-11-04T04:04:38.930Z,4.53
2022-11-04T04:07:17.756Z,5.53
2022-11-04T04:09:52.220Z,5.25
2022-11-04T04:12:30.446Z,5.20
2022-11-04T04:15:08.237Z,5.18
2022-11-04T04:17:45.329Z,5.25
2022-11-04T04:20:22.654Z,6.38
2022-11-04T04:23:03.701Z,5.10
2022-11-04T04:25:51.016Z,5.68
2022-11-04T04:28:20.020Z,5.22
2022-11-04T04:30:47.468Z,5.25
2022-11-04T04:33:19.315Z,5.03
2022-11-04T04:35:55.240Z,6.72
2022-11-04T04:38:43.706Z,6.38
2022-11-04T04:41:41.643Z,6.25
2022-11-04T04:44:45.255Z,6.15
2022-11-04T04:47:20.118Z,6.50
2022-11-04T04:49:58.582Z,6.53
2022-11-04T04:52:36.750Z,5.70
2022-11-04T04:55:04.598Z,6.63
2022-11-04T04:57:31.999Z,5.95
2022-11-04T04:59:59.285Z,6.22
2022-11-04T05:02:27.049Z,5.82
2022-11-04T05:04:56.243Z,7.30
2022-11-04T05:07:23.561Z,7.00
2022-11-04T05:09:51.024Z,6.15
2022-11-04T05:12:18.492Z,6.65
2022-11-04T05:14:45.763Z,8.13
2022-11-04T05:17:13.389Z,7.88
2022-11-04T05:19:40.623Z,7.65
2022-11-04T05:22:07.901Z,7.03
2022-11-04T05:24:35.181Z,7.50
2022-11-04T05:27:02.434Z,7.35
2022-11-04T05:29:29.938Z,7.63
2022-11-04T05:31:57.364Z,7.82
2022-11-04T05:34:24.622Z,7.47
2022-11-04T05:36:51.996Z,7.75
2022-11-04T05:39:19.229Z,7.40
2022-11-04T05:41:46.546Z,8.10
2022-11-04T05:44:13.963Z,8.23
2022-11-04T05:46:41.232Z,7.22
2022-11-04T05:49:09.673Z,10.18
2022-11-04T05:51:37.042Z,8.63
2022-11-04T05:54:04.474Z,9.00
2022-11-04T05:56:31.842Z,8.05
2022-11-04T05:58:59.244Z,9.48
2022-11-04T06:01:33.082Z,7.78
2022-11-04T06:04:01.323Z,9.27
2022-11-04T06:06:31.102Z,7.55
2022-11-04T06:08:59.079Z,9.23
2022-11-04T06:11:28.558Z,8.15
2022-11-04T06:13:57.334Z,9.10
2022-11-04T06:16:24.968Z,9.02
2022-11-04T06:18:52.847Z,8.93
2022-11-04T06:21:27.301Z,8.20
2022-11-04T06:23:57.478Z,9.40
2022-11-04T06:26:28.177Z,9.10
2022-11-04T06:28:57.730Z,8.33
2022-11-04T06:31:25.369Z,9.02
2022-11-04T06:33:53.164Z,9.63
2022-11-04T06:36:20.533Z,8.70
2022-11-04T06:38:47.944Z,9.15
2022-11-04T06:41:17.663Z,9.88
2022-11-04T06:43:45.228Z,8.63
2022-11-04T06:46:34.595Z,9.55
2022-11-04T06:49:03.713Z,8.82
2022-11-04T06:51:31.374Z,8.20
2022-11-04T06:53:59.043Z,8.25
2022-11-04T06:56:26.340Z,9.48
2022-11-04T06:58:55.164Z,9.07
2022-11-04T07:01:25.342Z,8.48
2022-11-04T07:03:54.719Z,7.70
2022-11-04T07:06:22.786Z,5.43
2022-11-04T07:08:51.515Z,6.25
2022-11-04T07:11:21.315Z,6.95
2022-11-04T07:13:49.384Z,6.78
2022-11-04T07:16:17.566Z,7.22
2022-11-04T07:18:45.235Z,3.90
2022-11-04T07:21:13.062Z,5.05
2022-11-04T07:23:40.684Z,5.05
2022-11-04T07:26:10.089Z,4.95
2022-11-04T07:28:37.838Z,4.35
2022-11-04T07:31:07.806Z,4.95
2022-11-04T07:33:35.514Z,4.00
2022-11-04T07:36:08.230Z,3.67
2022-11-04T07:38:35.579Z,4.22
2022-11-04T07:41:03.239Z,3.97
2022-11-04T07:43:30.923Z,4.55
2022-11-04T07:46:03.960Z,3.45
2022-11-04T07:48:31.547Z,4.28
2022-11-04T07:51:00.497Z,3.00
2022-11-04T07:53:29.741Z,3.45
2022-11-04T07:55:57.458Z,3.40
2022-11-04T07:58:26.522Z,3.35
2022-11-04T08:01:02.206Z,2.72
2022-11-04T08:03:29.751Z,3.35
2022-11-04T08:05:58.621Z,2.90
2022-11-04T08:08:27.467Z,2.92
2022-11-04T08:10:57.518Z,2.92
2022-11-04T08:13:28.752Z,3.00
2022-11-04T08:15:56.980Z,2.88
2022-11-04T08:18:24.279Z,3.30
2022-11-04T08:20:52.576Z,3.13
2022-11-04T08:23:20.041Z,3.08
2022-11-04T08:25:47.467Z,2.78
2022-11-04T08:28:17.565Z,2.80
2022-11-04T08:31:04.548Z,2.30
2022-11-04T08:33:33.736Z,2.55
2022-11-04T08:36:07.441Z,2.88
2022-11-04T08:38:34.973Z,1.98
2022-11-04T08:41:04.378Z,2.03
2022-11-04T08:43:32.603Z,1.65
2022-11-04T08:46:00.764Z,2.50
2022-11-04T08:48:28.527Z,1.70
2022-11-04T08:51:01.665Z,1.70
2022-11-04T08:53:29.079Z,1.55
2022-11-04T08:55:56.515Z,2.58
2022-11-04T08:58:24.938Z,1.77
2022-11-04T09:00:52.754Z,1.60
2022-11-04T09:03:20.615Z,1.80
2022-11-04T09:05:49.316Z,1.65
2022-11-04T09:08:18.427Z,1.80
2022-11-04T09:10:47.595Z,1.50
2022-11-04T09:13:16.132Z,1.25
2022-11-04T09:15:44.058Z,1.90
2022-11-04T09:18:11.621Z,1.70
2022-11-04T09:20:39.675Z,1.60
2022-11-04T09:23:07.729Z,1.58
2022-11-04T09:25:35.689Z,1.83
2022-11-04T09:28:04.954Z,1.92
2022-11-04T09:30:32.824Z,1.92
2022-11-04T09:33:00.569Z,1.50
2022-11-04T09:35:28.186Z,2.38
2022-11-04T09:37:55.945Z,2.25
2022-11-04T09:40:25.749Z,2.30
2022-11-04T09:43:22.342Z,1.85
2022-11-04T09:45:50.318Z,2.00
2022-11-04T09:48:25.856Z,3.58
2022-11-04T09:50:57.542Z,1.85
2022-11-04T09:53:35.654Z,2.20
2022-11-04T09:56:32.910Z,2.40
2022-11-04T09:59:02.309Z,2.42
2022-11-04T10:01:41.259Z,2.70
2022-11-04T10:04:20.768Z,2.17
2022-11-04T10:07:19.096Z,1.58
2022-11-04T10:10:03.863Z,2.55
2022-11-04T10:12:31.604Z,2.40
2022-11-04T10:15:34.767Z,2.00
2022-11-04T10:18:22.220Z,1.60
2022-11-04T10:21:24.650Z,2.15
2022-11-04T10:24:20.692Z,1.60
2022-11-04T10:26:54.856Z,1.80
2022-11-04T10:29:44.847Z,1.85
2022-11-04T10:32:38.203Z,2.30
2022-11-04T10:35:30.464Z,1.90
2022-11-04T10:38:11.006Z,2.03
2022-11-04T10:40:41.877Z,1.83
2022-11-04T10:43:13.704Z,1.48
2022-11-04T10:45:50.290Z,1.92
2022-11-04T10:48:28.255Z,1.52
2022-11-04T10:50:58.444Z,1.35
2022-11-04T10:53:27.046Z,1.20
2022-11-04T10:56:25.619Z,1.45
2022-11-04T10:58:55.228Z,1.40
2022-11-04T11:01:34.184Z,1.35
2022-11-04T11:04:06.317Z,1.45
2022-11-04T11:06:36.598Z,1.45
2022-11-04T11:09:18.796Z,1.80
2022-11-04T11:11:53.028Z,1.63
2022-11-04T11:14:33.085Z,0.88
2022-11-04T11:17:38.467Z,1.40
2022-11-04T11:20:25.530Z,1.42
2022-11-04T11:22:54.223Z,1.20
2022-11-04T11:25:34.999Z,1.90
2022-11-04T11:28:25.434Z,1.77
2022-11-04T11:30:59.850Z,1.52
2022-11-04T11:33:35.964Z,1.75
2022-11-04T11:36:28.273Z,1.92
2022-11-04T11:39:01.589Z,1.40
2022-11-04T11:41:32.597Z,2.33
2022-11-04T11:44:17.825Z,2.25
2022-11-04T11:46:54.824Z,1.80
2022-11-04T11:49:30.479Z,1.85
2022-11-04T11:52:38.555Z,1.40
2022-11-04T11:55:32.694Z,2.25
2022-11-04T12:01:51.125Z,1.50
2022-11-04T12:11:10.455Z,1.73
2022-11-04T12:13:44.485Z,1.63
2022-11-04T12:16:47.257Z,1.33
2022-11-04T12:19:43.351Z,1.65
2022-11-04T12:22:51.022Z,1.90
2022-11-04T12:25:42.472Z,1.63
2022-11-04T12:28:44.468Z,1.63
2022-11-04T12:31:48.849Z,1.30
2022-11-04T12:34:42.176Z,1.50
2022-11-04T12:37:27.823Z,1.30
2022-11-04T12:40:20.973Z,1.70
2022-11-04T12:43:18.725Z,1.52
2022-11-04T12:46:23.990Z,2.03
2022-11-04T12:49:28.491Z,2.38
2022-11-04T12:52:29.593Z,2.03
2022-11-04T12:55:23.064Z,1.60
2022-11-04T12:58:03.185Z,1.85
2022-11-04T13:00:34.397Z,1.95
2022-11-04T13:03:30.293Z,1.92
2022-11-04T13:06:05.908Z,1.70
2022-11-04T13:08:41.224Z,1.88
2022-11-04T13:11:25.930Z,2.30
2022-11-04T13:14:41.106Z,1.90
2022-11-04T13:17:15.147Z,2.00
2022-11-04T13:20:00.761Z,2.55
2022-11-04T13:22:34.395Z,2.03
2022-11-04T13:25:14.081Z,1.58
2022-11-04T13:27:46.456Z,1.45
2022-11-04T13:30:38.481Z,2.67
2022-11-04T13:33:49.382Z,2.22
2022-11-04T13:36:29.527Z,2.17
2022-11-04T13:39:01.047Z,1.88
2022-11-04T13:41:59.668Z,1.75
2022-11-04T13:44:40.049Z,1.40
2022-11-04T13:47:24.398Z,1.85
2022-11-04T13:49:55.578Z,1.98
2022-11-04T13:52:28.395Z,1.50
2022-11-04T13:55:05.499Z,2.00
2022-11-04T13:58:06.882Z,1.80
2022-11-04T14:00:37.641Z,2.15
2022-11-04T14:03:51.769Z,1.58
2022-11-04T14:06:53.262Z,1.58
2022-11-04T14:09:49.836Z,2.38
2022-11-04T14:12:25.339Z,2.50
2022-11-04T14:15:11.459Z,1.80
2022-11-04T14:17:59.091Z,1.95
2022-11-04T14:20:33.249Z,1.77
2022-11-04T14:23:03.490Z,1.90
2022-11-04T14:25:44.384Z,2.28
2022-11-04T14:28:25.710Z,1.95
2022-11-04T14:30:55.412Z,2.17
2022-11-04T14:33:37.908Z,2.20
2022-11-04T14:36:27.729Z,2.03
2022-11-04T14:39:32.364Z,2.33
2022-11-04T14:42:02.527Z,2.30
2022-11-04T14:44:36.371Z,1.67
2022-11-04T14:47:29.989Z,2.35
2022-11-04T14:50:08.708Z,1.65
2022-11-04T14:53:04.392Z,2.15
2022-11-04T14:55:32.914Z,2.33
2022-11-04T14:58:24.018Z,2.47
2022-11-04T15:01:02.520Z,1.73
2022-11-04T15:06:40.545Z,0.90
2022-11-04T15:09:30.696Z,1.45
2022-11-04T15:12:33.036Z,0.77
2022-11-04T15:15:00.693Z,1.35
2022-11-04T15:17:31.430Z,1.52
2022-11-04T15:20:01.643Z,1.83
2022-11-04T15:22:30.627Z,1.83
2022-11-04T15:25:02.870Z,1.60
2022-11-04T15:27:31.397Z,1.95
2022-11-04T15:30:01.338Z,1.73
2022-11-04T15:32:28.910Z,1.77
2022-11-04T15:34:57.616Z,1.48
2022-11-04T15:37:26.770Z,2.00
2022-11-04T15:39:57.853Z,1.63
2022-11-04T15:42:40.444Z,2.08
2022-11-04T15:45:27.061Z,2.17
2022-11-04T15:48:33.737Z,2.47
2022-11-04T15:51:19.590Z,2.30
2022-11-04T15:54:08.133Z,1.77
2022-11-04T15:56:50.920Z,2.10
2022-11-04T15:59:28.667Z,2.05
2022-11-04T16:01:56.498Z,2.28
2022-11-04T16:04:26.278Z,2.20
2022-11-04T16:07:35.562Z,2.22
2022-11-04T16:10:07.003Z,3.33
2022-11-04T16:12:37.705Z,3.15
2022-11-04T16:15:05.479Z,3.17
2022-11-04T16:17:33.266Z,3.22
2022-11-04T16:20:04.733Z,2.70
2022-11-04T16:22:39.136Z,3.90
2022-11-04T16:25:10.988Z,2.60
2022-11-04T16:27:38.436Z,2.33
2022-11-04T16:30:20.537Z,3.47
2022-11-04T16:32:50.547Z,2.72
2022-11-04T16:35:28.342Z,3.50
2022-11-04T16:37:56.840Z,3.13
2022-11-04T16:40:25.376Z,3.17
2022-11-04T16:42:53.659Z,3.78
2022-11-04T16:45:33.319Z,3.20
2022-11-04T16:48:00.950Z,3.53
2022-11-04T16:50:28.708Z,3.00
2022-11-04T16:52:56.438Z,3.33
2022-11-04T16:55:25.230Z,3.95
2022-11-04T16:57:58.657Z,3.30
2022-11-04T17:00:27.426Z,3.47
2022-11-04T17:02:54.996Z,4.05
2022-11-04T17:05:22.422Z,3.80
2022-11-04T17:07:56.608Z,3.33
2022-11-04T17:10:28.673Z,3.80
2022-11-04T17:12:56.335Z,3.50
2022-11-04T17:15:23.803Z,2.92
2022-11-04T17:17:51.196Z,3.67
2022-11-04T17:20:19.351Z,3.75
2022-11-04T17:22:47.556Z,3.53
2022-11-04T17:25:18.945Z,3.25
2022-11-04T17:27:46.357Z,3.17
2022-11-04T17:30:14.616Z,3.15
2022-11-04T17:32:43.320Z,3.65
2022-11-04T17:35:11.729Z,3.30
2022-11-04T17:37:39.290Z,2.67
2022-11-04T17:40:08.310Z,3.22
2022-11-04T17:42:54.278Z,3.03
2022-11-04T17:45:21.670Z,3.28
2022-11-04T17:47:49.151Z,3.10
2022-11-04T17:50:16.503Z,3.13
2022-11-04T17:52:44.749Z,1.98
2022-11-04T17:55:16.541Z,2.85
2022-11-04T17:57:45.588Z,3.00
2022-11-04T18:00:14.660Z,3.25
2022-11-04T18:02:42.920Z,2.72
2022-11-04T18:05:10.354Z,3.45
2022-11-04T18:07:37.750Z,3.28
2022-11-04T18:10:06.094Z,2.95
2022-11-04T18:12:41.704Z,3.00
2022-11-04T18:15:14.242Z,2.58
2022-11-04T18:17:43.952Z,2.55
2022-11-04T18:20:15.454Z,3.00
2022-11-04T18:22:43.929Z,3.55
2022-11-04T18:25:12.089Z,3.10
2022-11-04T18:27:39.498Z,2.47
2022-11-04T18:30:07.740Z,2.92
2022-11-04T18:32:35.143Z,4.78
2022-11-04T18:35:02.823Z,2.55
2022-11-04T18:37:30.305Z,2.30
2022-11-04T18:39:57.639Z,3.40
2022-11-04T18:42:25.092Z,2.72
2022-11-04T18:44:52.770Z,3.47
2022-11-04T18:47:20.275Z,3.20
2022-11-04T18:49:47.948Z,3.00
2022-11-04T18:52:15.480Z,2.92
2022-11-04T18:54:43.783Z,2.90
2022-11-04T18:57:12.068Z,3.13
2022-11-04T18:59:39.530Z,3.00
2022-11-04T19:02:07.488Z,3.05
2022-11-04T19:04:34.928Z,3.22
2022-11-04T19:07:04.408Z,3.95
2022-11-04T19:09:45.923Z,2.80
2022-11-04T19:12:33.272Z,3.17
2022-11-04T19:15:00.705Z,3.63
2022-11-04T19:17:27.991Z,3.20
2022-11-04T19:19:55.254Z,4.18
2022-11-04T19:22:22.575Z,3.35
2022-11-04T19:24:49.863Z,4.22
2022-11-04T19:27:19.550Z,3.58
2022-11-04T19:29:46.889Z,3.10
2022-11-04T19:32:14.727Z,4.22
2022-11-04T19:34:43.139Z,3.03
2022-11-04T19:37:10.861Z,4.32
2022-11-04T19:39:38.826Z,3.38
2022-11-04T19:42:25.272Z,4.13
2022-11-04T19:44:52.627Z,3.50
2022-11-04T19:47:19.907Z,3.28
2022-11-04T19:49:47.198Z,4.45
2022-11-04T19:52:14.622Z,4.07
2022-11-04T19:54:41.905Z,4.05
2022-11-04T19:57:09.244Z,4.18
2022-11-04T19:59:36.479Z,3.53
2022-11-04T20:02:03.888Z,3.50
2022-11-04T20:04:31.226Z,4.30
2022-11-04T20:06:58.675Z,3.75
2022-11-04T20:09:26.088Z,3.15
2022-11-04T20:12:11.852Z,3.72
2022-11-04T20:14:39.149Z,4.10
2022-11-04T20:17:07.164Z,3.78
2022-11-04T20:19:35.322Z,3.58
2022-11-04T20:22:03.471Z,3.97
2022-11-04T20:24:30.884Z,3.30
2022-11-04T20:26:58.203Z,3.97
2022-11-04T20:29:25.485Z,4.00
2022-11-04T20:31:52.761Z,3.38
2022-11-04T20:34:20.021Z,4.57
2022-11-04T20:36:47.397Z,4.85
2022-11-04T20:39:17.443Z,3.33
2022-11-04T20:41:45.488Z,4.55
2022-11-04T20:44:14.177Z,3.22
2022-11-04T20:46:42.265Z,4.05
2022-11-04T20:49:10.043Z,4.63
2022-11-04T20:51:42.344Z,3.50
2022-11-04T20:54:12.360Z,4.03
2022-11-04T20:56:41.056Z,4.70
2022-11-04T20:59:12.777Z,3.90
2022-11-04T21:01:42.989Z,3.85
2022-11-04T21:04:15.033Z,4.32
2022-11-04T21:06:42.447Z,3.90
2022-11-04T21:09:13.101Z,4.38
2022-11-04T21:11:41.386Z,3.65
2022-11-04T21:14:11.706Z,4.10
2022-11-04T21:16:39.629Z,3.95
2022-11-04T21:19:08.045Z,4.03
2022-11-04T21:21:35.631Z,3.20
2022-11-04T21:24:05.686Z,3.28
2022-11-04T21:26:34.819Z,4.05
2022-11-04T21:29:05.089Z,4.47
2022-11-04T21:31:34.429Z,3.00
2022-11-04T21:34:02.048Z,4.32
2022-11-04T21:36:29.660Z,4.57
2022-11-04T21:38:58.159Z,3.70
2022-11-04T21:41:28.138Z,4.35
2022-11-04T21:43:55.879Z,3.97
2022-11-04T21:46:24.137Z,3.78
2022-11-04T21:48:51.421Z,3.55
2022-11-04T21:51:22.422Z,4.03
2022-11-04T21:53:49.794Z,3.63
2022-11-04T21:56:20.208Z,3.75
2022-11-04T21:58:47.596Z,4.03
2022-11-04T22:01:18.724Z,3.30
2022-11-04T22:03:50.663Z,3.17
2022-11-04T22:06:18.555Z,3.55
2022-11-04T22:08:54.640Z,3.92
2022-11-04T22:11:24.683Z,3.05
2022-11-04T22:13:57.954Z,3.63
2022-11-04T22:16:32.135Z,2.95
2022-11-04T22:19:01.422Z,3.25
2022-11-04T22:21:30.058Z,3.35
2022-11-04T22:23:58.417Z,4.45
2022-11-04T22:26:32.512Z,3.63
2022-11-04T22:29:00.450Z,3.08
2022-11-04T22:31:33.648Z,3.20
2022-11-04T22:34:01.975Z,4.32
2022-11-04T22:36:30.857Z,3.63
2022-11-04T22:38:59.246Z,3.75
2022-11-04T22:41:31.746Z,4.00
2022-11-04T22:43:59.518Z,3.92
2022-11-04T22:46:29.275Z,3.78
2022-11-04T22:48:56.981Z,3.08
2022-11-04T22:51:24.357Z,2.92
2022-11-04T22:53:56.616Z,3.33
2022-11-04T22:56:26.372Z,3.53
2022-11-04T22:58:54.357Z,3.47
2022-11-04T23:01:22.284Z,3.80
2022-11-04T23:03:52.157Z,4.80
2022-11-04T23:06:19.674Z,3.63
2022-11-04T23:08:47.024Z,3.75
2022-11-04T23:11:38.694Z,4.00
2022-11-04T23:14:24.304Z,3.47
2022-11-04T23:17:10.746Z,3.40
2022-11-04T23:19:38.848Z,3.63
2022-11-04T23:22:25.695Z,3.20
2022-11-04T23:25:06.627Z,4.55
2022-11-04T23:27:58.000Z,3.88
2022-11-04T23:30:27.837Z,3.42
2022-11-04T23:33:00.602Z,4.20
2022-11-04T23:35:52.158Z,3.95
2022-11-04T23:38:19.948Z,3.33
2022-11-04T23:41:07.656Z,3.28
2022-11-04T23:43:35.708Z,3.58
2022-11-04T23:46:21.738Z,4.22
2022-11-04T23:49:07.475Z,3.78
2022-11-04T23:51:53.347Z,4.18
2022-11-04T23:54:39.127Z,3.50
2022-11-04T23:57:33.290Z,3.28
